METAR Data
IDs: Format: Raw Decoded Include TAF

Data at: 1855 UTC 16 Oct 2021

KE11 161835Z AUTO 08006G14KT 10SM CLR 20/M06 A3043 RMK AO2 T01971061
KE11 161815Z AUTO 12006KT 10SM CLR 19/M06 A3044 RMK AO2 T01921059
KE11 161755Z AUTO 13008G14KT 10SM CLR 19/M06 A3046 RMK AO2 T01871056 10192 20032
KE11 161735Z AUTO 17009KT 10SM CLR 18/M04 A3046 RMK AO2 T01821041
KE11 161715Z AUTO 14007KT 10SM CLR 18/M02 A3047 RMK AO2 T01771024
KE11 161650Z AUTO 12008KT 10SM CLR 17/M02 A3047 RMK AO2 T01741018
KE11 161635Z AUTO 13005KT 10SM CLR 17/M02 A3047 RMK AO2 T01671016
KE11 161610Z AUTO 12010KT 10SM CLR 16/M01 A3047 RMK AO2 T01631014
KE11 161555Z AUTO 12008KT 10SM CLR 16/M01 A3047 RMK AO2 T01561013
KE11 161535Z AUTO 12009KT 10SM CLR 15/M01 A3047 RMK AO2 T01511012
KE11 161515Z AUTO 14007KT 10SM CLR 14/M01 A3047 RMK AO2 T01411007
KE11 161455Z AUTO 13006KT 10SM CLR 13/00 A3046 RMK AO2 T01301002
KE11 161435Z AUTO 14004KT 10SM CLR 12/00 A3046 RMK AO2 T01170001
KE11 161415Z AUTO 00000KT 10SM CLR 10/00 A3046 RMK AO2 T00990000
KE11 161355Z AUTO 00000KT 10SM CLR 07/00 A3045 RMK AO2 T00721004
KE11 161335Z AUTO 00000KT 10SM CLR 05/M01 A3044 RMK AO2 T00471011
KE11 161315Z AUTO 00000KT 10SM CLR 04/M01 A3044 RMK AO2 T00351014
KE11 161255Z AUTO 35003KT 10SM CLR 04/M01 A3043 RMK AO2 T00361013
KE11 161235Z AUTO 34003KT 10SM CLR 04/M01 A3043 RMK AO2 T00361013
KE11 161215Z AUTO 00000KT 10SM CLR 04/M01 A3043 RMK AO2 T00381013
KE11 161155Z AUTO 00000KT 10SM CLR 03/M01 A3042 RMK AO2 T00331015 10075 20033
KE11 161135Z AUTO 00000KT 10SM CLR 04/M01 A3042 RMK AO2 T00371015
KE11 161115Z AUTO 00000KT 10SM CLR 04/M01 A3041 RMK AO2 T00441011
KE11 161055Z AUTO 00000KT 10SM CLR 05/M01 A3041 RMK AO2 T00491012
KE11 161035Z AUTO 00000KT 10SM CLR 06/M01 A3041 RMK AO2 T00581006
KE11 161015Z AUTO 00000KT 10SM CLR 06/00 A3041 RMK AO2 T00591001
KE11 160955Z AUTO 00000KT 10SM CLR 05/M02 A3039 RMK AO2 T00531018
KE11 160935Z AUTO 00000KT 10SM CLR 06/00 A3039 RMK AO2 T00581001
KE11 160915Z AUTO 00000KT 10SM CLR 07/M01 A3039 RMK AO2 T00721015
KE11 160855Z AUTO 00000KT 10SM CLR 06/M02 A3039 RMK AO2 T00571023
KE11 160835Z AUTO 00000KT 10SM CLR 06/M01 A3039 RMK AO2 T00601008
KE11 160815Z AUTO 00000KT 10SM CLR 06/M03 A3040 RMK AO2 T00581026
KE11 160755Z AUTO 09003KT 10SM CLR 07/M02 A3041 RMK AO2 T00651024
KE11 160735Z AUTO 00000KT 10SM CLR 07/M02 A3041 RMK AO2 T00681023
KE11 160715Z AUTO 06004KT 10SM CLR 06/M03 A3040 RMK AO2 T00571030
KE11 160655Z AUTO 00000KT 10SM CLR 06/M03 A3040 RMK AO2 T00631026
KE11 160635Z AUTO 00000KT 10SM CLR 07/M03 A3039 RMK AO2 T00651026
KE11 160615Z AUTO 04005KT 10SM CLR 06/M03 A3039 RMK AO2 T00631027
KE11 160555Z AUTO 05003KT 10SM CLR 07/M02 A3039 RMK AO2 T00731025 10175 20070
KE11 160535Z AUTO 05005KT 10SM CLR 07/M03 A3039 RMK AO2 T00701027
KE11 160515Z AUTO 05007KT 10SM CLR 07/M03 A3038 RMK AO2 T00721026
KE11 160455Z AUTO 05006KT 10SM CLR 08/M03 A3038 RMK AO2 T00801026 402050080
KE11 160435Z AUTO 04007KT 10SM CLR 08/M02 A3037 RMK AO2 T00821025
KE11 160415Z AUTO 05006KT 10SM CLR 09/M02 A3037 RMK AO2 T00851025
KE11 160355Z AUTO 03005KT 10SM CLR 09/M02 A3036 RMK AO2 T00881022
KE11 160335Z AUTO 01005KT 10SM CLR 09/M02 A3035 RMK AO2 T00901021
KE11 160315Z AUTO 02006KT 10SM CLR 09/M02 A3035 RMK AO2 T00911021
KE11 160255Z AUTO 03006KT 10SM CLR 10/M02 A3034 RMK AO2 T00971021
KE11 160235Z AUTO 03005KT 10SM CLR 10/M02 A3033 RMK AO2 T01011023
KE11 160215Z AUTO 03005KT 10SM CLR 11/M02 A3032 RMK AO2 T01051023
KE11 160155Z AUTO 03005KT 10SM CLR 11/M02 A3031 RMK AO2 T01111022
KE11 160135Z AUTO 03006KT 10SM CLR 11/M03 A3031 RMK AO2 T01131027
KE11 160115Z AUTO 03006KT 10SM CLR 12/M03 A3030 RMK AO2 T01201026
KE11 160055Z AUTO 03005KT 10SM CLR 13/M02 A3028 RMK AO2 T01291025
KE11 160035Z AUTO 04005KT 10SM CLR 15/M02 A3028 RMK AO2 T01461023
KE11 160015Z AUTO 03006KT 10SM CLR 16/M02 A3027 RMK AO2 T01621025
KE11 152355Z AUTO 03008KT 10SM CLR 18/M02 A3027 RMK AO2 T01761025 10205 20176
KE11 152335Z AUTO 03011KT 10SM CLR 19/M03 A3026 RMK AO2 T01851026
KE11 152315Z AUTO 02011G17KT 10SM CLR 19/M02 A3026 RMK AO2 T01901023
KE11 152255Z AUTO 02010KT 10SM CLR 19/M03 A3025 RMK AO2 T01941026
KE11 152235Z AUTO 03014G17KT 10SM CLR 20/M03 A3025 RMK AO2 T01971028
KE11 152215Z AUTO 36010G15KT 10SM CLR 20/M03 A3025 RMK AO2 T02011026
KE11 152155Z AUTO 02013G17KT 10SM CLR 20/M03 A3025 RMK AO2 T02031028
KE11 152135Z AUTO 01010G15KT 10SM CLR 20/M03 A3024 RMK AO2 T02021027
KE11 152115Z AUTO 03015G19KT 10SM CLR 20/M02 A3024 RMK AO2 T02041020
KE11 152055Z AUTO 04012G16KT 10SM CLR 20/M02 A3024 RMK AO2 T02041018
KE11 152035Z AUTO 04012G19KT 010V070 10SM CLR 20/M02 A3024 RMK AO2 T02011019
KE11 152015Z AUTO 03011G15KT 10SM CLR 20/M02 A3024 RMK AO2 T02001021
KE11 151955Z AUTO 01011G20KT 10SM CLR 20/M01 A3024 RMK AO2 T01981012
KE11 151935Z AUTO 01011G20KT 10SM CLR 20/M01 A3024 RMK AO2 T01951008
KE11 151915Z AUTO 02014G19KT 10SM CLR 19/00 A3025 RMK AO2 T01921003
KE11 151855Z AUTO 02016G21KT 10SM CLR 19/00 A3025 RMK AO2 T01920000
KE11 151835Z AUTO 01015G22KT 10SM CLR 19/00 A3025 RMK AO2 T01920004
KE11 151815Z AUTO 03014G20KT 10SM CLR 19/01 A3026 RMK AO2 T01850007
KE11 151755Z AUTO 02014G22KT 10SM CLR 18/01 A3026 RMK AO2 T01800011 10180 20082
KE11 151735Z AUTO 01010G20KT 10SM CLR 18/02 A3027 RMK AO2 T01760017
KE11 151715Z AUTO 02015G20KT 10SM CLR 17/02 A3027 RMK AO2 T01690023
KE11 151655Z AUTO 02012KT 10SM CLR 16/03 A3026 RMK AO2 T01640027
KE11 151635Z AUTO 02013KT 10SM CLR 16/03 A3026 RMK AO2 T01600031
KE11 151615Z AUTO 02013G19KT 10SM CLR 15/03 A3026 RMK AO2 T01530032
KE11 151555Z AUTO 36013KT 10SM CLR 15/03 A3025 RMK AO2 T01450032
KE11 151535Z AUTO 01015G18KT 10SM CLR 14/03 A3025 RMK AO2 T01380030
KE11 151515Z AUTO 01015G19KT 10SM CLR 13/03 A3024 RMK AO2 T01310030
KE11 151455Z AUTO 01013G17KT 10SM CLR 12/03 A3022 RMK AO2 T01220029
KE11 151435Z AUTO 01015KT 10SM CLR 11/03 A3021 RMK AO2 T01110026
KE11 151415Z AUTO 36014KT 10SM CLR 10/02 A3020 RMK AO2 T01020023
KE11 151355Z AUTO 01015KT 10SM CLR 10/02 A3018 RMK AO2 T00960020
KE11 151335Z AUTO 36010G14KT 10SM CLR 09/01 A3017 RMK AO2 T00880013
KE11 151315Z AUTO 36009KT 10SM CLR 08/01 A3015 RMK AO2 T00830005
KE11 151255Z AUTO 36011KT 10SM CLR 08/00 A3014 RMK AO2 T00840000
KE11 151235Z AUTO 35011KT 10SM CLR 09/M01 A3013 RMK AO2 T00901011
KE11 151215Z AUTO 35009KT 10SM CLR 09/M03 A3012 RMK AO2 T00911027
KE11 151155Z AUTO 35009KT 10SM CLR 10/M04 A3010 RMK AO2 T00971038 10161 20097
KE11 151135Z AUTO 35008KT 10SM CLR 10/M04 A3009 RMK AO2 T01021045
KE11 151115Z AUTO 34010KT 10SM CLR 11/M05 A3007 RMK AO2 T01131047
KE11 151055Z AUTO 34008KT 10SM CLR 12/M05 A3006 RMK AO2 T01221049
KE11 151035Z AUTO 32009KT 10SM CLR 13/M05 A3004 RMK AO2 T01301050
KE11 151015Z AUTO 32009KT 10SM CLR 13/M05 A3003 RMK AO2 T01261050
KE11 150955Z AUTO 32007KT 10SM CLR 12/M05 A3003 RMK AO2 T01161052
KE11 150935Z AUTO 31007KT 10SM CLR 12/M06 A3002 RMK AO2 T01201056
KE11 150915Z AUTO 31006KT 10SM CLR 12/M05 A3001 RMK AO2 T01211054
KE11 150850Z AUTO 30006KT 10SM CLR 13/M06 A2999 RMK AO2 T01301056
KE11 150835Z AUTO 30007KT 10SM CLR 14/M06 A2999 RMK AO2 T01371057
KE11 150815Z AUTO 32005KT 10SM CLR 13/M05 A2998 RMK AO2 T01331054
KE11 150755Z AUTO 33006KT 10SM CLR 14/M06 A2998 RMK AO2 T01351056
KE11 150735Z AUTO 31005KT 10SM CLR 14/M06 A2998 RMK AO2 T01441060
KE11 150715Z AUTO 31010KT 10SM CLR 16/M07 A2998 RMK AO2 T01601066